Flight Track Log - Related Links

Times and Time Zones

All times are in EDT time to prevent confusion due to time zone crossing. See the B-2086 flight status page for this flight to view local times or setup timezone preferences in your user account.

Time Position Orientation Groundspeed Altitude Reporting Facility
EDT Latitude Longitude Course Direction KTS MPH feet Rate Location/Type
Sat 09:37:00 PM 40.3812 116.9568 43° Northeast  Level FlightAware Approximate
Sat 09:38:00 PM 40.4813 117.0816 43° Northeast  Level FlightAware Approximate
Sat 09:39:00 PM 40.5812 117.2068 44° Northeast  Level FlightAware Approximate
Sat 09:40:00 PM 40.6810 117.3324 44° Northeast  Level FlightAware Approximate
Sat 09:41:00 PM 40.7807 117.4583 44° Northeast  Level FlightAware Approximate
Sat 09:42:00 PM 40.8803 117.5846 44° Northeast  Level FlightAware Approximate
Sat 09:43:00 PM 40.9797 117.7113 44° Northeast  Level FlightAware Approximate
Sat 09:44:00 PM 41.0789 117.8384 44° Northeast  Level FlightAware Approximate
Sat 09:45:00 PM 41.1781 117.9659 44° Northeast  Level FlightAware Approximate
Sat 09:46:00 PM 41.2771 118.0937 44° Northeast  Level FlightAware Approximate
Sat 09:47:00 PM 41.3685 118.2122 44° Northeast  Level FlightAware Approximate
Sat 09:48:00 PM 41.4673 118.3405 44° Northeast  Level FlightAware Approximate
Sat 09:49:00 PM 41.5661 118.4693 44° Northeast  Level FlightAware Approximate
Sat 09:50:00 PM 41.6646 118.5985 44° Northeast  Level FlightAware Approximate
Sat 09:51:00 PM 41.7631 118.7281 44° Northeast  Level FlightAware Approximate
Sat 09:52:00 PM 41.8614 118.8580 45° Northeast  Level FlightAware Approximate
Sat 09:53:00 PM 41.9595 118.9884 45° Northeast  Level FlightAware Approximate
Sat 09:54:00 PM 42.0575 119.1192 45° Northeast  Level FlightAware Approximate
Sat 09:55:00 PM 42.1553 119.2503 45° Northeast  Level FlightAware Approximate
Sat 09:56:00 PM 42.2531 119.3819 45° Northeast  Level FlightAware Approximate
Sat 09:57:00 PM 42.3506 119.5139 45° Northeast  Level FlightAware Approximate
Sat 09:58:00 PM 42.4480 119.6463 45° Northeast  Level FlightAware Approximate
Sat 09:59:00 PM 42.5452 119.7791 45° Northeast  Level FlightAware Approximate
Sat 10:00:00 PM 42.6423 119.9124 46° Northeast  Level FlightAware Approximate
Sat 10:01:00 PM 42.7388 120.0465 46° Northeast  Level FlightAware Approximate
Sat 10:02:00 PM 42.8352 120.1811 46° Northeast  Level FlightAware Approximate
Sat 10:03:00 PM 42.9315 120.3160 46° Northeast  Level FlightAware Approximate
Sat 10:04:00 PM 43.0276 120.4514 46° Northeast  Level FlightAware Approximate
Sat 10:05:00 PM 43.1235 120.5872 46° Northeast  Level FlightAware Approximate
Sat 10:06:00 PM 43.2193 120.7235 46° Northeast  Level FlightAware Approximate
Sat 10:07:00 PM 43.3149 120.8601 46° Northeast  Level FlightAware Approximate
Sat 10:08:00 PM 43.4103 120.9972 46° Northeast  Level FlightAware Approximate
Sat 10:09:00 PM 43.5056 121.1348 46° Northeast  Level FlightAware Approximate
Sat 10:10:00 PM 43.6007 121.2727 46° Northeast  Level FlightAware Approximate
Sat 10:11:00 PM 43.6957 121.4111 46° Northeast  Level FlightAware Approximate
Sat 10:12:00 PM 43.7905 121.5500 47° Northeast  Level FlightAware Approximate
Sat 10:13:00 PM 43.8851 121.6893 47° Northeast  Level FlightAware Approximate
Sat 10:14:00 PM 43.9795 121.8290 47° Northeast  Level FlightAware Approximate
Sat 10:15:00 PM 44.0738 121.9691 47° Northeast  Level FlightAware Approximate
Sat 10:16:00 PM 44.1679 122.1098 47° Northeast  Level FlightAware Approximate
Sat 10:17:00 PM 44.2618 122.2508 47° Northeast  Level FlightAware Approximate
Sat 10:18:00 PM 44.3555 122.3923 47° Northeast  Level FlightAware Approximate
Sat 10:19:00 PM 44.4491 122.5343 47° Northeast  Level FlightAware Approximate
Sat 10:20:00 PM 44.5425 122.6767 47° Northeast  Level FlightAware Approximate
Sat 10:21:00 PM 44.6357 122.8196 47° Northeast  Level FlightAware Approximate
Sat 10:22:00 PM 44.7288 122.9630 48° Northeast  Level FlightAware Approximate
Sat 10:23:00 PM 44.8217 123.1068 48° Northeast  Level FlightAware Approximate
Sat 10:24:00 PM 44.9143 123.2510 48° Northeast  Level FlightAware Approximate
Sat 10:25:00 PM 45.0068 123.3958 48° Northeast  Level FlightAware Approximate
Sat 10:26:00 PM 45.0992 123.5410 48° Northeast  Level FlightAware Approximate
Sat 10:27:00 PM 45.1913 123.6866 48° Northeast  Level FlightAware Approximate
Sat 10:28:00 PM 45.2832 123.8328 48° Northeast  Level FlightAware Approximate
Sat 10:29:00 PM 45.3750 123.9794 48° Northeast  Level FlightAware Approximate
Sat 10:30:00 PM 45.4666 124.1265 48° Northeast  Level FlightAware Approximate
Sat 10:31:00 PM 45.5579 124.2740 48° Northeast  Level FlightAware Approximate
Sat 10:32:00 PM 45.6491 124.4221 49° Northeast  Level FlightAware Approximate
Sat 10:33:00 PM 45.7401 124.5706 49° Northeast  Level FlightAware Approximate
Sat 10:34:00 PM 45.8309 124.7196 49° Northeast  Level FlightAware Approximate
Sat 10:35:00 PM 45.9216 124.8691 49° Northeast  Level FlightAware Approximate
Sat 10:36:00 PM 46.0120 125.0191 49° Northeast  Level FlightAware Approximate
Sat 10:37:00 PM 46.1022 125.1696 49° Northeast  Level FlightAware Approximate
Sat 10:38:00 PM 46.1922 125.3206 49° Northeast  Level FlightAware Approximate
Sat 10:39:00 PM 46.2820 125.4720 49° Northeast  Level FlightAware Approximate
Sat 10:40:00 PM 46.3717 125.6240 49° Northeast  Level FlightAware Approximate
Sat 10:41:00 PM 46.4611 125.7765 50° Northeast  Level FlightAware Approximate
Sat 10:42:00 PM 46.5503 125.9294 50° Northeast  Level FlightAware Approximate
Sat 10:43:00 PM 46.6393 126.0829 50° Northeast  Level FlightAware Approximate
Sat 10:44:00 PM 46.7281 126.2369 50° Northeast  Level FlightAware Approximate
Sat 10:45:00 PM 46.8167 126.3913 50° Northeast  Level FlightAware Approximate
Sat 10:46:00 PM 46.9051 126.5463 50° Northeast  Level FlightAware Approximate
Sat 10:47:00 PM 46.9935 126.7017 50° Northeast  Level FlightAware Approximate
Sat 10:48:00 PM 47.0816 126.8575 50° Northeast  Level FlightAware Approximate
Sat 10:49:00 PM 47.1696 127.0138 50° Northeast  Level FlightAware Approximate
Sat 10:50:00 PM 47.2573 127.1706 50° Northeast  Level FlightAware Approximate
Sat 10:51:00 PM 47.3449 127.3279 51° Northeast  Level FlightAware Approximate
Sat 10:52:00 PM 47.4322 127.4858 51° Northeast  Level FlightAware Approximate
Sat 10:53:00 PM 47.5193 127.6442 51° Northeast  Level FlightAware Approximate
Sat 10:54:00 PM 47.6061 127.8031 51° Northeast  Level FlightAware Approximate
Sat 10:55:00 PM 47.6928 127.9625 51° Northeast  Level FlightAware Approximate
Sat 10:56:00 PM 47.7792 128.1225 51° Northeast  Level FlightAware Approximate
Sat 10:57:00 PM 47.8654 128.2830 51° Northeast  Level FlightAware Approximate
Sat 10:58:00 PM 47.9514 128.4440 51° Northeast  Level FlightAware Approximate
Sat 10:59:00 PM 48.0372 128.6056 52° Northeast  Level FlightAware Approximate
Sat 11:00:00 PM 48.1227 128.7677 52° Northeast  Level FlightAware Approximate
Sat 11:01:00 PM 48.2080 128.9303 52° Northeast  Level FlightAware Approximate
Sat 11:02:00 PM 48.2931 129.0935 52° Northeast  Level FlightAware Approximate
Sat 11:03:00 PM 48.3779 129.2573 52° Northeast  Level FlightAware Approximate
Sat 11:04:00 PM 48.4625 129.4216 52° Northeast  Level FlightAware Approximate
Sat 11:05:00 PM 48.5469 129.5864 52° Northeast  Level FlightAware Approximate
Sat 11:06:00 PM 48.6310 129.7518 52° Northeast  Level FlightAware Approximate
Sat 11:07:00 PM 48.7149 129.9177 52° Northeast  Level FlightAware Approximate
Sat 11:08:00 PM 48.7986 130.0842 53° Northeast  Level FlightAware Approximate
Sat 11:09:00 PM 48.8820 130.2512 53° Northeast  Level FlightAware Approximate
Sat 11:10:00 PM 48.9651 130.4188 53° Northeast  Level FlightAware Approximate
Sat 11:11:00 PM 49.0481 130.5869 53° Northeast  Level FlightAware Approximate
Sat 11:12:00 PM 49.1308 130.7557 53° Northeast  Level FlightAware Approximate
Sat 11:13:00 PM 49.2132 130.9249 53° Northeast  Level FlightAware Approximate
Sat 11:14:00 PM 49.2954 131.0948 53° Northeast  Level FlightAware Approximate
Sat 11:15:00 PM 49.3773 131.2652 54° Northeast  Level FlightAware Approximate
Sat 11:15:37 PM 46.8950 130.6630 54° Northeast 512 589 31,000  Level FlightAware ADS-B
Sat 11:16:00 PM 49.4590 131.4362 54° Northeast  Level FlightAware Approximate
Sat 11:16:17 PM 46.9290 130.7930 69° East 511 588 31,000  Level FlightAware ADS-B
Sat 11:16:57 PM 46.9640 130.9250 69° East 512 589 31,000  Level FlightAware ADS-B
Sat 11:17:42 PM 47.0040 131.0750 69° East 515 593 31,000  Level FlightAware ADS-B
Sat 11:18:27 PM 47.0470 131.2400 69° East 515 593 31,000  Level FlightAware ADS-B
Sat 11:19:02 PM 47.0740 131.3470 70° East 515 593 31,000  Level FlightAware ADS-B
Sat 11:19:37 PM 47.1040 131.4620 69° East 516 594 31,000  Level FlightAware ADS-B
Sat 11:20:32 PM 47.1450 131.6210 69° East 515 593 31,000  Level FlightAware ADS-B
Sat 11:21:12 PM 47.1780 131.7510 69° East 516 594 31,000  Level FlightAware ADS-B
Sat 11:22:02 PM 47.2230 131.9260 69° East 518 596 31,000  Level FlightAware ADS-B
Sat 11:22:52 PM 47.2590 132.0700 70° East 518 596 31,000  Level FlightAware ADS-B
Sat 11:23:32 PM 47.2950 132.2140 70° East 518 596 31,000  Level FlightAware ADS-B
Sat 11:24:27 PM 47.3430 132.4080 70° East 522 601 31,000  Level FlightAware ADS-B
Sat 11:25:22 PM 47.3900 132.6000 70° East 522 601 31,000  Level FlightAware ADS-B
Sat 11:26:02 PM 47.4180 132.7150 70° East 522 601 31,000  Level FlightAware ADS-B
Sat 11:26:47 PM 47.4580 132.8790 70° East 525 604 31,000  Level FlightAware ADS-B
Sat 11:27:32 PM 47.4930 133.0250 70° East 524 603 31,000  Level FlightAware ADS-B
Sat 11:28:12 PM 47.5260 133.1610 70° East 522 601 31,000  Level FlightAware ADS-B
Sat 11:28:52 PM 47.5580 133.2960 71° East 524 603 31,000  Level FlightAware ADS-B
Sat 11:29:37 PM 47.5950 133.4520 71° East 526 605 31,000  Level FlightAware ADS-B
Sat 11:30:12 PM 47.6240 133.5760 71° East 525 604 31,000  Level FlightAware ADS-B
Sat 11:31:02 PM 47.6630 133.7420 71° East 526 605 31,000  Level FlightAware ADS-B
Sat 11:31:42 PM 47.6940 133.8790 71° East 526 605 31,000  Level FlightAware ADS-B
Sat 11:32:22 PM 47.7260 134.0180 71° East 525 604 31,000  Level FlightAware ADS-B
Sat 11:33:02 PM 47.7560 134.1480 71° East 526 605 31,000  Level FlightAware ADS-B
Sat 11:33:42 PM 47.7910 134.3000 71° East 527 606 31,000  Level FlightAware ADS-B
Sat 11:34:32 PM 47.8310 134.4760 71° East 528 608 31,000  Level FlightAware ADS-B
Sat 11:35:07 PM 47.8560 134.5850 71° East 530 610 31,000  Level FlightAware ADS-B
Sat 11:35:27 PM 47.8880 134.6520 55° Northeast 534 615 31,000  Level FlightAware ADS-B
Sat 11:36:02 PM 47.9620 134.7260 34° Northeast 542 624 31,000  Level FlightAware ADS-B
Sat 11:36:52 PM 48.0700 134.8130 28° Northeast 536 617 31,000  Level FlightAware ADS-B
Sat 11:37:27 PM 48.1360 134.8670 29° Northeast 536 617 31,000  Level FlightAware ADS-B
Sat 11:38:07 PM 48.2690 134.9770 29° Northeast 536 617 31,000  Level FlightAware ADS-B
Sat 11:38:57 PM 48.3760 135.0670 29° Northeast 538 619 31,000  Level FlightAware ADS-B
Sat 11:39:32 PM 48.4530 135.1320 29° Northeast 539 620 31,000  Level FlightAware ADS-B
Sat 11:40:17 PM 48.5480 135.2220 32° Northeast 541 623 31,000  Level FlightAware ADS-B
Sat 11:41:02 PM 48.6220 135.3220 42° Northeast 539 620 31,000  Level FlightAware ADS-B
Sat 11:41:42 PM 48.7030 135.4420 44° Northeast 537 618 31,000  Level FlightAware ADS-B
Sat 11:42:27 PM 48.7780 135.5540 45° Northeast 537 618 31,000  Level FlightAware ADS-B
Sat 11:43:07 PM 48.8490 135.6600 44° Northeast 537 618 31,000  Level FlightAware ADS-B
Sat 11:44:17 PM 48.9600 135.8260 44° Northeast 540 621 31,000  Level FlightAware ADS-B
Sat 11:45:12 PM 49.0440 135.9510 44° Northeast 538 619 31,000  Level FlightAware ADS-B
Sat 11:45:57 PM 49.1300 136.0830 45° Northeast 540 621 31,000  Level FlightAware ADS-B
Sat 11:46:37 PM 49.1980 136.1880 45° Northeast 540 621 31,000  Level FlightAware ADS-B
Sat 11:47:32 PM 49.2940 136.3350 45° Northeast 538 619 31,000  Level FlightAware ADS-B
Sat 11:48:17 PM 49.3720 136.4560 45° Northeast 535 616 31,000  Level FlightAware ADS-B
Sat 11:49:12 PM 49.4730 136.5950 42° Northeast 537 618 31,000  Level FlightAware ADS-B
Sat 11:49:47 PM 49.5390 136.6650 35° Northeast 540 621 31,000  Level FlightAware ADS-B
Sat 11:50:37 PM 49.6510 136.7810 34° Northeast 539 620 31,000  Level FlightAware ADS-B
Sat 11:51:17 PM 49.7300 136.8610 33° Northeast 540 621 31,000  Level FlightAware ADS-B
Sat 11:52:02 PM 49.8220 136.9560 34° Northeast 541 623 31,000  Level FlightAware ADS-B
Sat 11:52:42 PM 49.9110 137.0480 34° Northeast 542 624 31,000  Level FlightAware ADS-B
Sat 11:53:22 PM 49.9890 137.1300 34° Northeast 541 623 31,000  Level FlightAware ADS-B
Sat 11:54:07 PM 50.0810 137.2260 34° Northeast 540 621 31,000  Level FlightAware ADS-B
Sat 11:55:17 PM 50.2280 137.3840 34° Northeast 542 624 31,000  Level FlightAware ADS-B
Sat 11:56:12 PM 50.3390 137.5030 34° Northeast 541 623 31,000  Level FlightAware ADS-B
Sat 11:56:52 PM 50.4260 137.6000 35° Northeast 542 624 31,000  Level FlightAware ADS-B
Sat 11:57:32 PM 50.4980 137.6870 38° Northeast 542 624 31,000  Level FlightAware ADS-B
Sat 11:58:07 PM 50.5810 137.7900 38° Northeast 541 623 31,000  Level FlightAware ADS-B
Sat 11:59:02 PM 50.6710 137.9000 38° Northeast 537 618 31,000  Level FlightAware ADS-B
Sat 11:59:42 PM 50.7500 137.9970 38° Northeast 535 616 31,000  Level FlightAware ADS-B
Sun 12:00:22 AM 50.8340 138.0990 37° Northeast 533 613 31,000  Level FlightAware ADS-B
Sun 12:01:22 AM 50.9390 138.2260 37° Northeast 532 612 31,000  Level FlightAware ADS-B
Sun 12:02:02 AM 51.0060 138.3060 37° Northeast 532 612 31,000  Level FlightAware ADS-B
Sun 12:02:42 AM 51.0730 138.3870 37° Northeast 532 612 31,000  Level FlightAware ADS-B
Sun 12:03:22 AM 51.1390 138.4670 37° Northeast 532 612 31,000  Level FlightAware ADS-B
Sun 12:04:02 AM 51.2060 138.5470 37° Northeast 532 612 31,000  Level FlightAware ADS-B
Sun 12:04:52 AM 51.2900 138.6480 37° Northeast 532 612 31,000  Level FlightAware ADS-B
Sun 12:05:32 AM 51.3570 138.7280 37° Northeast 532 612 31,000  Level FlightAware ADS-B
Sun 12:06:12 AM 51.4230 138.8090 37° Northeast 532 612 31,000  Level FlightAware ADS-B
Sun 12:06:52 AM 51.4900 138.8900 37° Northeast 532 612 31,000  Level FlightAware ADS-B
Sun 12:07:32 AM 51.5570 138.9710 37° Northeast 532 612 31,000  Level FlightAware ADS-B
Sun 12:08:22 AM 51.6410 139.0720 37° Northeast 532 612 31,000  Level FlightAware ADS-B
Sun 12:09:02 AM 51.7070 139.1530 37° Northeast 532 612 31,000  Level FlightAware ADS-B
Sun 12:09:42 AM 51.7740 139.2350 37° Northeast 532 612 31,000  Level FlightAware ADS-B
Sun 12:10:22 AM 51.8410 139.3160 37° Northeast 532 612 31,000  Level FlightAware ADS-B
Sun 12:13:00 AM 52.1710 139.5633 25° Northeast  Level Estimated
Sun 12:14:00 AM 52.2962 139.6581 25° Northeast  Level Estimated
Sun 12:15:00 AM 52.4213 139.7535 25° Northeast  Level Estimated
Sun 12:16:00 AM 52.5463 139.8495 25° Northeast  Level Estimated
Sun 12:17:00 AM 52.6712 139.9460 25° Northeast  Level Estimated
Sun 12:18:00 AM 52.7961 140.0430 25° Northeast  Level Estimated
Sun 12:19:00 AM 52.9209 140.1406 25° Northeast  Level Estimated
Sun 12:20:00 AM 53.0456 140.2388 25° Northeast  Level Estimated
Sun 12:21:00 AM 53.1702 140.3375 25° Northeast  Level Estimated
Sun 12:22:00 AM 53.2948 140.4368 25° Northeast  Level Estimated
Sun 12:23:00 AM 53.4192 140.5367 26° Northeast  Level Estimated
Sun 12:24:00 AM 53.5436 140.6372 26° Northeast  Level Estimated
Sun 12:25:00 AM 53.6679 140.7383 26° Northeast  Level Estimated
Sun 12:26:00 AM 53.7921 140.8399 26° Northeast  Level Estimated
Sun 12:27:00 AM 53.9162 140.9422 26° Northeast  Level Estimated
Sun 12:28:00 AM 54.0402 141.0451 26° Northeast  Level Estimated
Sun 12:29:00 AM 54.1642 141.1486 26° Northeast  Level Estimated
Sun 12:30:00 AM 54.2880 141.2527 26° Northeast  Level Estimated
Sun 12:31:00 AM 54.4118 141.3575 26° Northeast  Level Estimated
Sun 12:32:00 AM 54.5355 141.4628 26° Northeast  Level Estimated
Sun 12:33:00 AM 54.6590 141.5689 26° Northeast  Level Estimated
Sun 12:34:00 AM 54.7825 141.6755 26° Northeast  Level Estimated
Sun 12:35:00 AM 54.9059 141.7829 27° Northeast  Level Estimated
Sun 12:36:00 AM 55.0292 141.8908 27° Northeast  Level Estimated
Sun 12:37:00 AM 55.1524 141.9995 27° Northeast  Level Estimated
Sun 12:38:00 AM 55.2755 142.1088 27° Northeast  Level Estimated
Sun 12:39:00 AM 55.3985 142.2188 27° Northeast  Level Estimated
Sun 12:40:00 AM 55.5214 142.3295 27° Northeast  Level Estimated
Sun 12:41:00 AM 55.6442 142.4409 27° Northeast  Level Estimated
Sun 12:42:00 AM 55.7669 142.5529 27° Northeast  Level Estimated
Sun 12:43:00 AM 55.8895 142.6657 27° Northeast  Level Estimated
Sun 12:44:00 AM 56.0121 142.7792 27° Northeast  Level Estimated
Sun 12:45:00 AM 56.1344 142.8935 27° Northeast  Level Estimated
Sun 12:46:00 AM 56.2567 143.0084 28° Northeast  Level Estimated
Sun 12:47:00 AM 56.3789 143.1241 28° Northeast  Level Estimated
Sun 12:48:00 AM 56.5010 143.2405 28° Northeast  Level Estimated
Sun 12:49:00 AM 56.6229 143.3577 28° Northeast  Level Estimated
Sun 12:50:00 AM 56.7448 143.4757 28° Northeast  Level Estimated
Sun 12:51:00 AM 56.8665 143.5944 28° Northeast  Level Estimated
Sun 12:52:00 AM 56.9882 143.7139 28° Northeast  Level Estimated
Sun 12:53:00 AM 57.1097 143.8341 28° Northeast  Level Estimated
Sun 12:54:00 AM 57.2311 143.9552 28° Northeast  Level Estimated
Sun 12:55:00 AM 57.3523 144.0771 28° Northeast  Level Estimated
Sun 12:56:00 AM 57.4735 144.1997 29° Northeast  Level Estimated
Sun 12:57:00 AM 57.5946 144.3232 29° Northeast  Level Estimated
Sun 12:58:00 AM 57.7155 144.4475 29° Northeast  Level Estimated
Sun 12:59:00 AM 57.8363 144.5727 29° Northeast  Level Estimated
Sun 01:00:00 AM 57.9569 144.6986 29° Northeast  Level Estimated
Sun 01:01:00 AM 58.0775 144.8255 29° Northeast  Level Estimated
Sun 01:02:00 AM 58.1979 144.9532 29° Northeast  Level Estimated
Sun 01:03:00 AM 58.3182 145.0817 29° Northeast  Level Estimated
Sun 01:04:00 AM 58.4384 145.2112 29° Northeast  Level Estimated
Sun 01:05:00 AM 58.5584 145.3415 30° Northeast  Level Estimated
Sun 01:06:00 AM 58.6783 145.4727 30° Northeast  Level Estimated
Sun 01:07:00 AM 58.7980 145.6048 30° Northeast  Level Estimated
Sun 01:08:00 AM 58.9177 145.7379 30° Northeast  Level Estimated
Sun 01:09:00 AM 59.0372 145.8718 30° Northeast  Level Estimated
Sun 01:10:00 AM 59.1565 146.0067 30° Northeast  Level Estimated
Sun 01:11:00 AM 59.2757 146.1426 30° Northeast  Level Estimated
Sun 01:12:00 AM 59.3948 146.2794 30° Northeast  Level Estimated
Sun 01:13:00 AM 59.5137 146.4171 30° Northeast  Level Estimated
Sun 01:14:00 AM 59.6325 146.5558 31° Northeast  Level Estimated
Sun 01:15:00 AM 59.7511 146.6956 31° Northeast  Level Estimated
Sun 01:16:00 AM 59.8696 146.8363 31° Northeast  Level Estimated
Sun 01:17:00 AM 59.9879 146.9780 31° Northeast  Level Estimated
Sun 01:18:00 AM 60.1061 147.1207 31° Northeast  Level Estimated
Sun 01:19:00 AM 60.2241 147.2645 31° Northeast  Level Estimated
Sun 01:20:00 AM 60.3420 147.4093 31° Northeast  Level Estimated
Sun 01:21:00 AM 60.4597 147.5551 31° Northeast  Level Estimated
Sun 01:22:00 AM 60.5773 147.7021 32° Northeast  Level Estimated
Sun 01:23:00 AM 60.6946 147.8500 32° Northeast  Level Estimated
Sun 01:24:00 AM 60.8119 147.9991 32° Northeast  Level Estimated
Sun 01:25:00 AM 60.9289 148.1493 32° Northeast  Level Estimated
Sun 01:26:00 AM 61.0458 148.3005 32° Northeast  Level Estimated
Sun 01:27:00 AM 61.1625 148.4529 32° Northeast  Level Estimated
Sun 01:28:00 AM 61.2790 148.6064 32° Northeast  Level Estimated
Sun 01:29:00 AM 61.3954 148.7611 32° Northeast  Level Estimated
Sun 01:30:00 AM 61.5116 148.9169 33° Northeast  Level Estimated
Sun 01:31:00 AM 61.6276 149.0739 33° Northeast  Level Estimated
Sun 01:32:00 AM 61.7434 149.2321 33° Northeast  Level Estimated
Sun 01:33:00 AM 61.8591 149.3914 33° Northeast  Level Estimated
Sun 01:34:00 AM 61.9745 149.5520 33° Northeast  Level Estimated
Sun 01:35:00 AM 62.0898 149.7138 33° Northeast  Level Estimated
Sun 01:36:00 AM 62.2049 149.8768 33° Northeast  Level Estimated
Sun 01:37:00 AM 62.3198 150.0410 34° Northeast  Level Estimated
Sun 01:38:00 AM 62.4345 150.2066 34° Northeast  Level Estimated
Sun 01:39:00 AM 62.5490 150.3734 34° Northeast  Level Estimated
Sun 01:40:00 AM 62.6633 150.5414 34° Northeast  Level Estimated
Sun 01:41:00 AM 62.7774 150.7108 34° Northeast  Level Estimated
Sun 01:42:00 AM 62.8913 150.8815 34° Northeast  Level Estimated
Sun 01:43:00 AM 63.0049 151.0535 34° Northeast  Level Estimated
Sun 01:44:00 AM 63.1184 151.2269 35° Northeast  Level Estimated
Sun 01:45:00 AM 63.2317 151.4016 35° Northeast  Level Estimated
Sun 01:46:00 AM 63.3447 151.5777 35° Northeast  Level Estimated
Sun 01:47:00 AM 63.4575 151.7552 35° Northeast  Level Estimated
Sun 01:48:00 AM 63.5701 151.9341 35° Northeast  Level Estimated
Sun 01:49:00 AM 63.6825 152.1144 35° Northeast  Level Estimated
Sun 01:50:00 AM 63.7947 152.2962 36° Northeast  Level Estimated
Sun 01:51:00 AM 63.9066 152.4794 36° Northeast  Level Estimated
Sun 01:52:00 AM 64.0183 152.6640 36° Northeast  Level Estimated
Sun 01:53:00 AM 64.1297 152.8502 36° Northeast  Level Estimated
Sun 01:54:00 AM 64.2409 153.0378 36° Northeast  Level Estimated
Sun 01:55:00 AM 64.3519 153.2270 36° Northeast  Level Estimated
Sun 01:56:00 AM 64.4626 153.4177 37° Northeast  Level Estimated
Sun 01:57:00 AM 64.5731 153.6099 37° Northeast  Level Estimated
Sun 01:58:00 AM 64.6833 153.8037 37° Northeast  Level Estimated
Sun 01:59:00 AM 64.7933 153.9991 37° Northeast  Level Estimated
Sun 02:00:00 AM 64.9030 154.1961 37° Northeast  Level Estimated
Sun 02:01:00 AM 65.0124 154.3947 37° Northeast  Level Estimated
Sun 02:02:00 AM 65.1216 154.5949 38° Northeast  Level Estimated
Sun 02:03:00 AM 65.2305 154.7968 38° Northeast  Level Estimated
Sun 02:04:00 AM 65.3392 155.0003 38° Northeast  Level Estimated
Sun 02:05:00 AM 65.4475 155.2056 38° Northeast  Level Estimated
Sun 02:06:00 AM 65.5556 155.4125 38° Northeast  Level Estimated
Sun 02:07:00 AM 65.6634 155.6212 39° Northeast  Level Estimated
Sun 02:08:00 AM 65.7709 155.8315 39° Northeast  Level Estimated
Sun 02:09:00 AM 65.8781 156.0437 39° Northeast  Level Estimated
Sun 02:10:00 AM 65.9850 156.2576 39° Northeast  Level Estimated
Sun 02:11:00 AM 66.0917 156.4734 39° Northeast  Level Estimated
Sun 02:12:00 AM 66.1980 156.6909 40° Northeast  Level Estimated
Sun 02:13:00 AM 66.3040 156.9103 40° Northeast  Level Estimated
Sun 02:14:00 AM 66.4097 157.1315 40° Northeast  Level Estimated
Sun 02:15:00 AM 66.5151 157.3547 40° Northeast  Level Estimated
Sun 02:16:00 AM 66.6201 157.5797 40° Northeast  Level Estimated
Sun 02:17:00 AM 66.7249 157.8066 41° Northeast  Level Estimated
Sun 02:18:00 AM 66.8293 158.0354 41° Northeast  Level Estimated
Sun 02:19:00 AM 66.9334 158.2663 41° Northeast  Level Estimated
Sun 02:20:00 AM 67.0371 158.4990 41° Northeast  Level Estimated
Sun 02:21:00 AM 67.1405 158.7338 41° Northeast  Level Estimated
Sun 02:22:00 AM 67.2436 158.9706 42° Northeast  Level Estimated
Sun 02:23:00 AM 67.3463 159.2094 42° Northeast  Level Estimated
Sun 02:24:00 AM 67.4486 159.4503 42° Northeast  Level Estimated
Sun 02:25:00 AM 67.5506 159.6933 42° Northeast  Level Estimated
Sun 02:26:00 AM 67.6522 159.9384 42° Northeast  Level Estimated
Sun 02:27:00 AM 67.7534 160.1855 43° Northeast  Level Estimated
Sun 02:28:00 AM 67.8543 160.4348 43° Northeast  Level Estimated
Sun 02:29:00 AM 67.9548 160.6863 43° Northeast  Level Estimated
Sun 02:30:00 AM 68.0549 160.9400 43° Northeast  Level Estimated
Sun 02:31:00 AM 68.1546 161.1959 44° Northeast  Level Estimated
Sun 02:32:00 AM 68.2539 161.4540 44° Northeast  Level Estimated
Sun 02:33:00 AM 68.3528 161.7143 44° Northeast  Level Estimated
Sun 02:34:00 AM 68.4512 161.9769 44° Northeast  Level Estimated
Sun 02:35:00 AM 68.5493 162.2419 45° Northeast  Level Estimated
Sun 02:36:00 AM 68.6470 162.5091 45° Northeast  Level Estimated
Sun 02:36:02 AM 65.1980 170.6330 45° Northeast 519 597 31,000  Level FlightAware ADS-B
Sun 02:36:27 AM 65.2200 170.7480 65° Northeast 518 596 31,000  Level FlightAware ADS-B
Sun 02:37:12 AM 65.2670 170.9920 65° Northeast 519 597 31,000  Level FlightAware ADS-B
Sun 02:38:07 AM 65.3210 171.2810 66° East 522 601 31,000  Level FlightAware ADS-B
Sun 02:38:42 AM 65.3510 171.4470 67° East 522 601 31,000  Level FlightAware ADS-B
Sun 02:39:47 AM 65.4080 171.7580 66° East 523 602 31,000  Level FlightAware ADS-B
Sun 02:40:32 AM 65.4560 172.0390 68° East 523 602 31,000  Level FlightAware ADS-B
Sun 02:41:07 AM 65.4830 172.2440 72° East 524 603 31,000 160 Level FlightAware ADS-B
Sun 02:41:47 AM 65.5130 172.4780 73° East 526 605 31,200 988 Climbing FlightAware ADS-B
Sun 02:42:32 AM 65.5410 172.7090 74° East 523 602 32,400 1,200 Climbing FlightAware ADS-B
Sun 02:43:17 AM 65.5660 172.9120 73° East 512 589 33,000 400 Climbing FlightAware ADS-B
Sun 02:44:02 AM 65.6020 173.2130 74° East 512 589 33,000  Level FlightAware ADS-B
Sun 02:45:07 AM 65.6450 173.5720 74° East 506 582 33,000  Level FlightAware ADS-B
Sun 02:45:47 AM 65.6680 173.7730 74° East 506 582 33,000  Level FlightAware ADS-B
Sun 02:46:32 AM 65.6950 174.0040 74° East 507 583 33,000  Level FlightAware ADS-B
Sun 02:47:27 AM 65.7300 174.3240 75° East 515 593 33,000  Level FlightAware ADS-B
Sun 02:48:12 AM 65.7580 174.5770 75° East 516 594 33,000  Level FlightAware ADS-B
Sun 02:48:57 AM 65.7840 174.8170 75° East 517 595 33,000  Level FlightAware ADS-B
Sun 02:50:17 AM 65.8340 175.2830 75° East 518 596 33,000  Level FlightAware ADS-B
Sun 02:51:02 AM 65.8580 175.5240 76° East 520 598 33,000  Level FlightAware ADS-B
Sun 02:51:37 AM 65.8770 175.7050 76° East 520 598 33,000  Level FlightAware ADS-B
Sun 02:52:22 AM 65.9050 175.9860 76° East 520 598 33,000  Level FlightAware ADS-B
Sun 02:53:02 AM 65.9280 176.2270 77° East 519 597 33,000  Level FlightAware ADS-B
Sun 02:54:02 AM 65.9610 176.5690 77° East 520 598 33,000  Level FlightAware ADS-B
Sun 02:54:37 AM 65.9780 176.7510 77° East 517 595 33,000  Level FlightAware ADS-B
Sun 02:55:22 AM 66.0020 177.0150 77° East 517 595 33,000  Level FlightAware ADS-B
Sun 02:56:07 AM 66.0210 177.2260 77° East 517 595 33,000  Level FlightAware ADS-B
Sun 02:56:47 AM 66.0420 177.4750 78° East 516 594 33,000  Level FlightAware ADS-B
Sun 02:57:27 AM 66.0640 177.7230 78° East 510 587 33,000  Level FlightAware ADS-B
Sun 02:58:17 AM 66.0860 177.9900 78° East 511 588 33,000  Level FlightAware ADS-B
Sun 02:58:52 AM 66.1020 178.1820 78° East 511 588 33,000  Level FlightAware ADS-B
Sun 02:59:52 AM 66.1280 178.5110 79° East 512 589 33,000  Level FlightAware ADS-B
Sun 03:00:40 AM 66.1520 178.7880 78° East 512 589 33,000  Level FlightAware ADS-B
Sun 03:01:28 AM 66.1720 179.0220 78° East 512 589 33,000  Level FlightAware ADS-B
Sun 03:02:08 AM 66.1920 179.3390 81° East 508 585 33,000  Level FlightAware ADS-B
Sun 03:02:53 AM 66.2070 179.5500 80° East 506 582 33,000  Level FlightAware ADS-B
Sun 03:04:03 AM 66.2380 179.9880 80° East 506 582 33,000  Level FlightAware ADS-B
Sun 03:04:38 AM 66.2510 -179.8250 80° East 507 583 33,000  Level FlightAware ADS-B
Sun 03:05:38 AM 66.2750 -179.4630 80° East 506 582 33,000  Level FlightAware ADS-B
Sun 03:06:18 AM 66.2900 -179.2330 81° East 507 583 33,000  Level FlightAware ADS-B
Sun 03:06:58 AM 66.3020 -179.0530 81° East 510 587 33,000  Level FlightAware ADS-B
Sun 03:07:48 AM 66.3200 -178.7530 81° East 511 588 33,000  Level FlightAware ADS-B
Sun 03:08:23 AM 66.3340 -178.5260 81° East 510 587 33,000  Level FlightAware ADS-B
Sun 03:09:03 AM 66.3480 -178.2830 82° East 510 587 33,000  Level FlightAware ADS-B
Sun 03:09:58 AM 66.3620 -178.0480 81° East 511 588 33,000  Level FlightAware ADS-B
Sun 03:10:38 AM 66.3790 -177.7290 82° East 512 589 33,000  Level FlightAware ADS-B
Sun 03:11:08 AM 66.3850 -177.6130 83° East 512 589 33,000  Level FlightAware ADS-B
Sun 03:11:58 AM 66.4040 -177.2640 82° East 511 588 33,000  Level FlightAware ADS-B
Sun 03:12:33 AM 66.4120 -177.1020 83° East 509 586 33,000  Level FlightAware ADS-B
Sun 03:13:18 AM 66.4270 -176.7940 83° East 508 585 33,000  Level FlightAware ADS-B
Sun 03:14:08 AM 66.4400 -176.5200 83° East 510 587 33,000  Level FlightAware ADS-B
Sun 03:15:03 AM 66.4540 -176.1880 84° East 513 590 33,000  Level FlightAware ADS-B
Sun 03:15:43 AM 66.4630 -175.9930 83° East 512 589 33,000  Level FlightAware ADS-B
Sun 03:16:28 AM 66.4740 -175.7240 84° East 512 589 33,000  Level FlightAware ADS-B
Sun 03:17:08 AM 66.4850 -175.4640 84° East 513 590 33,000  Level FlightAware ADS-B
Sun 03:17:53 AM 66.4950 -175.1920 85° East 515 593 33,000  Level FlightAware ADS-B
Sun 03:18:58 AM 66.5080 -174.8270 85° East 514 592 33,000  Level FlightAware ADS-B
Sun 03:19:38 AM 66.5170 -174.5770 85° East 512 589 33,000  Level FlightAware ADS-B
Sun 03:20:23 AM 66.5250 -174.3360 85° East 513 590 33,000  Level FlightAware ADS-B
Sun 03:21:03 AM 66.5200 -174.4670 265° West 513 590 33,000  Level FlightAware ADS-B
Sun 03:21:48 AM 66.5280 -174.2340 85° East 513 590 33,000  Level FlightAware ADS-B
Sun 03:22:28 AM 66.5350 -174.0330 85° East 513 590 33,000  Level FlightAware ADS-B
Sun 03:23:08 AM 66.5420 -173.8310 85° East 513 590 33,000  Level FlightAware ADS-B
Sun 03:23:48 AM 66.5490 -173.6290 85° East 513 590 33,000  Level FlightAware ADS-B
Sun 03:24:28 AM 66.5560 -173.4270 85° East 513 590 33,000  Level FlightAware ADS-B
Sun 03:25:18 AM 66.5650 -173.1740 85° East 513 590 33,000  Level FlightAware ADS-B
Sun 03:25:58 AM 66.5720 -172.9720 85° East 513 590 33,000  Level FlightAware ADS-B
Sun 03:26:38 AM 66.5790 -172.7700 85° East 513 590 33,000  Level FlightAware ADS-B
Sun 03:27:18 AM 66.5860 -172.5670 85° East 513 590 33,000  Level FlightAware ADS-B
Sun 03:27:58 AM 66.5930 -172.3650 85° East 513 590 33,000  Level FlightAware ADS-B
Sun 03:28:48 AM 66.6020 -172.1120 85° East 513 590 33,000  Level FlightAware ADS-B
Sun 03:29:28 AM 66.6090 -171.9100 85° East 513 590 33,000  Level FlightAware ADS-B
Sun 03:30:08 AM 66.6160 -171.7070 85° East 513 590 33,000  Level FlightAware ADS-B
Sun 03:30:48 AM 66.6230 -171.5040 85° East 513 590 33,000  Level FlightAware ADS-B
Sun 03:33:00 AM 66.7478 -170.8207 65° Northeast  Level Estimated
Sun 03:34:00 AM 66.8036 -170.5078 66° East  Level Estimated
Sun 03:35:00 AM 66.8587 -170.1936 66° East  Level Estimated
Sun 03:36:00 AM 66.9132 -169.8779 66° East  Level Estimated
Sun 03:36:29 AM 66.6333 -168.5833 68° East 520 598 33,000  Level Anchorage Center
Sun 03:37:00 AM 66.9671 -169.5608 66° East  Level Estimated
Sun 03:37:29 AM 66.6500 -168.2167 83° East 520 598 33,000  Level Anchorage Center
Sun 03:38:00 AM 67.0203 -169.2423 67° East  Level Estimated
Sun 03:38:29 AM 66.6833 -167.8667 76° East 520 598 33,000  Level Anchorage Center
Sun 03:39:00 AM 67.0729 -168.9224 67° East  Level Estimated
Sun 03:39:29 AM 66.7000 -167.4833 84° East 530 610 33,000  Level Anchorage Center
Sun 03:40:00 AM 67.1249 -168.6011 67° East  Level Estimated
Sun 03:40:29 AM 66.7167 -167.1167 83° East 530 610 33,000  Level Anchorage Center
Sun 03:41:00 AM 67.1762 -168.2785 68° East  Level Estimated
Sun 03:41:29 AM 66.7333 -166.7500 83° East 520 598 33,000  Level Anchorage Center
Sun 03:43:29 AM 66.7667 -166.0000 83° East 530 610 33,000  Level Anchorage Center
Sun 03:44:29 AM 66.7833 -165.6333 83° East 520 598 33,000  Level Anchorage Center
Sun 03:45:29 AM 66.8000 -165.2667 83° East 520 598 33,000  Level Anchorage Center
Sun 03:46:29 AM 66.8167 -164.9000 83° East 510 587 33,000  Level Anchorage Center
Sun 03:47:30 AM 66.8167 -164.5333 90° East 530 610 33,000  Level Anchorage Center
Sun 03:48:30 AM 66.8333 -164.1667 83° East 520 598 33,000  Level Anchorage Center
Sun 03:49:30 AM 66.8500 -163.8000 83° East 520 598 33,000  Level Anchorage Center
Sun 03:50:30 AM 66.8500 -163.4333 90° East 530 610 33,000  Level Anchorage Center
Sun 03:51:30 AM 66.8667 -163.0500 84° East 530 610 33,000  Level Anchorage Center
Sun 03:52:30 AM 66.8667 -162.7000 90° East 530 610 33,000  Level Anchorage Center
Sun 03:53:31 AM 66.9000 -162.3167 77° East 540 621 33,000  Level Anchorage Center
Sun 03:54:31 AM 66.9333 -162.0000 75° East 510 587 33,000  Level Anchorage Center
Sun 03:55:31 AM 66.9833 -161.6500 70° East 530 610 33,000  Level Anchorage Center
Sun 03:56:31 AM 67.0167 -161.2833 77° East 520 598 33,000  Level Anchorage Center
Sun 03:57:31 AM 67.0667 -160.9333 70° East 520 598 33,000  Level Anchorage Center
Sun 03:58:31 AM 67.1000 -160.5667 77° East 520 598 33,000  Level Anchorage Center
Sun 03:59:31 AM 67.1333 -160.2167 76° East 510 587 33,000  Level Anchorage Center
Sun 04:00:31 AM 67.1833 -159.8500 70° East 520 598 33,000  Level Anchorage Center
Sun 04:01:32 AM 67.2167 -159.4833 77° East 510 587 33,000  Level Anchorage Center
Sun 04:02:32 AM 67.2500 -159.1333 76° East 520 598 33,000  Level Anchorage Center
Sun 04:03:32 AM 67.2833 -158.7667 77° East 520 598 33,000  Level Anchorage Center
Sun 04:04:32 AM 67.3167 -158.4000 77° East 530 610 33,000  Level Anchorage Center
Sun 04:05:32 AM 67.3500 -158.0167 77° East 520 598 33,000  Level Anchorage Center
Sun 04:06:32 AM 67.3833 -157.6667 76° East 520 598 33,000  Level Anchorage Center
Sun 04:07:32 AM 67.4167 -157.2667 78° East 520 598 33,000  Level Anchorage Center
Sun 04:08:32 AM 67.4333 -156.9000 83° East 520 598 33,000  Level Anchorage Center
Sun 04:09:32 AM 67.4667 -156.5333 76° East 520 598 33,000  Level Anchorage Center
Sun 04:10:32 AM 67.5000 -156.1500 77° East 520 598 33,000  Level Anchorage Center
Sun 04:11:33 AM 67.5333 -155.7833 76° East 510 587 33,000  Level Anchorage Center
Sun 04:12:33 AM 67.5500 -155.4167 83° East 520 598 33,000  Level Anchorage Center
Sun 04:13:33 AM 67.5833 -155.0500 76° East 510 587 33,000  Level Anchorage Center
Sun 04:14:33 AM 67.6000 -154.6667 83° East 520 598 33,000  Level Anchorage Center
Sun 04:15:33 AM 67.6333 -154.3000 76° East 510 587 33,000  Level Anchorage Center
Sun 04:16:33 AM 67.6500 -153.9333 83° East 510 587 33,000  Level Anchorage Center
Sun 04:17:33 AM 67.6833 -153.5667 76° East 510 587 33,000  Level Anchorage Center
Sun 04:18:33 AM 67.7000 -153.1833 83° East 520 598 33,000  Level Anchorage Center
Sun 04:19:34 AM 67.7167 -152.8167 83° East 510 587 33,000  Level Anchorage Center
Sun 04:20:34 AM 67.7333 -152.4500 83° East 520 598 33,000  Level Anchorage Center
Sun 04:21:34 AM 67.7500 -152.0667 83° East 510 587 33,000  Level Anchorage Center
Sun 04:22:34 AM 67.7667 -151.7000 83° East 510 587 33,000  Level Anchorage Center
Sun 04:23:34 AM 67.8000 -151.3167 77° East 510 587 33,000  Level Anchorage Center
Sun 04:24:34 AM 67.8167 -150.9500 83° East 520 598 33,000  Level Anchorage Center
Sun 04:25:34 AM 67.8167 -150.5833 90° East 500 575 33,000  Level Anchorage Center
Sun 04:26:35 AM 67.8333 -150.2833 81° East 510 587 33,000  Level Anchorage Center
Sun 04:27:35 AM 67.8500 -149.9000 83° East 510 587 33,000  Level Anchorage Center
Sun 04:28:35 AM 67.8667 -149.4667 84° East 510 587 33,000  Level Anchorage Center
Sun 04:29:35 AM 67.8833 -149.1000 83° East 500 575 33,000  Level Anchorage Center
Sun 04:30:35 AM 67.8833 -148.7167 90° East 500 575 33,000  Level Anchorage Center
Sun 04:31:35 AM 67.9000 -148.3500 83° East 510 587 33,000  Level Anchorage Center
Sun 04:32:35 AM 67.9000 -147.9833 90° East 500 575 33,000  Level Anchorage Center
Sun 04:33:36 AM 67.9167 -147.6000 83° East 510 587 33,000  Level Anchorage Center
Sun 04:34:36 AM 67.9167 -147.2333 90° East 500 575 33,000  Level Anchorage Center
Sun 04:35:36 AM 67.9333 -146.8500 83° East 510 587 33,000  Level Anchorage Center
Sun 04:36:35 AM 67.9333 -146.4833 90° East 510 587 33,000  Level Anchorage Center
Sun 04:37:36 AM 67.9333 -146.1000 90° East 510 587 33,000  Level Anchorage Center
Sun 04:38:36 AM 67.9500 -145.7167 83° East 510 587 33,000  Level Anchorage Center
Sun 04:39:36 AM 67.9500 -145.3500 90° East 510 587 33,000  Level Anchorage Center
Sun 04:40:36 AM 67.9500 -145.0500 90° East 510 587 33,000  Level Anchorage Center
Sun 04:41:36 AM 67.9500 -144.6667 90° East 510 587 33,000  Level Anchorage Center
Sun 04:42:36 AM 67.9500 -144.3000 90° East 510 587 33,000  Level Anchorage Center
Sun 04:43:36 AM 67.9500 -143.9167 90° East 510 587 33,000  Level Anchorage Center
Sun 04:44:37 AM 67.9500 -143.5333 90° East 510 587 33,000  Level Anchorage Center
Sun 04:45:37 AM 67.9500 -143.1667 90° East 510 587 33,000  Level Anchorage Center
Sun 04:46:37 AM 67.9500 -142.7833 90° East 510 587 33,000  Level Anchorage Center
Sun 04:47:37 AM 67.9500 -142.4000 90° East 500 575 33,000  Level Anchorage Center
Sun 04:48:37 AM 67.9500 -142.0333 90° East 510 587 33,000  Level Anchorage Center
Sun 04:49:37 AM 67.9333 -141.6500 96° East 520 598 33,000 Level Anchorage Center
Sun 04:51:00 AM 67.9272 -141.1505 92° East  Level Estimated
Sun 04:58:00 AM 67.8728 -138.6287 92° East  Level Estimated
Sun 04:59:00 AM 67.8619 -138.2695 94° East  Level Estimated
Sun 05:00:00 AM 67.8502 -137.9107 95° East  Level Estimated
Sun 05:01:00 AM 67.8377 -137.5523 95° East  Level Estimated
Sun 05:02:00 AM 67.8244 -137.1942 95° East  Level Estimated
Sun 05:03:00 AM 67.8104 -136.8366 96° East  Level Estimated
Sun 05:04:00 AM 67.7956 -136.4794 96° East  Level Estimated
Sun 05:05:00 AM 67.7800 -136.1227 96° East  Level Estimated
Sun 05:06:00 AM 67.7636 -135.7665 97° East  Level Estimated
Sun 05:07:00 AM 67.7464 -135.4108 97° East  Level Estimated
Sun 05:08:00 AM 67.7285 -135.0556 97° East  Level Estimated
Sun 05:09:00 AM 67.7098 -134.7010 98° East  Level Estimated
Sun 05:10:00 AM 67.6903 -134.3470 98° East  Level Estimated
Sun 05:11:00 AM 67.6701 -133.9935 98° East  Level Estimated
Sun 05:12:00 AM 67.6490 -133.6407 99° East  Level Estimated
Sun 05:13:00 AM 67.6273 -133.2885 99° East  Level Estimated
Sun 05:14:00 AM 67.6048 -132.9369 99° East  Level Estimated
Sun 05:15:00 AM 67.5815 -132.5861 100° East  Level Estimated
Sun 05:16:00 AM 67.5574 -132.2359 100° East  Level Estimated
Sun 05:17:00 AM 67.5326 -131.8865 100° East  Level Estimated
Sun 05:18:00 AM 67.5071 -131.5378 101° East  Level Estimated
Sun 05:19:00 AM 67.4808 -131.1899 101° East  Level Estimated
Sun 05:20:00 AM 67.4537 -130.8427 101° East  Level Estimated
Sun 05:21:00 AM 67.4259 -130.4964 102° East  Level Estimated
Sun 05:22:00 AM 67.3974 -130.1508 102° East  Level Estimated
Sun 05:23:00 AM 67.3682 -129.8062 102° East  Level Estimated
Sun 05:24:00 AM 67.3382 -129.4623 103° East  Level Estimated
Sun 05:25:00 AM 67.3074 -129.1194 103° East  Level Estimated
Sun 05:26:00 AM 67.2760 -128.7773 103° East  Level Estimated
Sun 05:27:00 AM 67.2438 -128.4361 104° East  Level Estimated
Sun 05:28:00 AM 67.2109 -128.0959 104° East  Level Estimated
Sun 05:29:00 AM 67.1773 -127.7565 104° East  Level Estimated
Sun 05:30:00 AM 67.1429 -127.4182 104° East  Level Estimated
Sun 05:31:00 AM 67.1078 -127.0808 105° East  Level Estimated
Sun 05:32:00 AM 67.0721 -126.7444 105° East  Level Estimated
Sun 05:33:00 AM 67.0356 -126.4090 105° East  Level Estimated
Sun 05:34:00 AM 66.9984 -126.0746 106° East  Level Estimated
Sun 05:35:00 AM 66.9606 -125.7413 106° East  Level Estimated
Sun 05:36:00 AM 66.9220 -125.4090 106° East  Level Estimated
Sun 05:37:00 AM 66.8827 -125.0777 107° East  Level Estimated
Sun 05:38:00 AM 66.8428 -124.7475 107° East  Level Estimated
Sun 05:39:00 AM 66.8021 -124.4184 107° East  Level Estimated
Sun 05:40:00 AM 66.7608 -124.0904 108° East  Level Estimated
Sun 05:41:00 AM 66.7188 -123.7636 108° East  Level Estimated
Sun 05:42:00 AM 66.6761 -123.4378 108° East  Level Estimated
Sun 05:43:00 AM 66.6328 -123.1132 108° East  Level Estimated
Sun 05:44:00 AM 66.5888 -122.7897 109° East  Level Estimated
Sun 05:45:00 AM 66.5441 -122.4673 109° East  Level Estimated
Sun 05:46:00 AM 66.4988 -122.1462 109° East  Level Estimated
Sun 05:47:00 AM 66.4528 -121.8262 110° East  Level Estimated
Sun 05:48:00 AM 66.4061 -121.5073 110° East  Level Estimated
Sun 05:49:00 AM 66.3588 -121.1897 110° East  Level Estimated
Sun 05:50:00 AM 66.3109 -120.8733 111° Southeast  Level Estimated
Sun 05:51:00 AM 66.2623 -120.5581 111° Southeast  Level Estimated
Sun 05:52:00 AM 66.2131 -120.2441 111° Southeast  Level Estimated
Sun 05:53:00 AM 66.1633 -119.9314 111° Southeast  Level Estimated
Sun 05:54:00 AM 66.1128 -119.6199 112° Southeast  Level Estimated
Sun 05:55:00 AM 66.0617 -119.3096 112° Southeast  Level Estimated
Sun 05:56:00 AM 66.0100 -119.0006 112° Southeast  Level Estimated
Sun 05:57:00 AM 65.9576 -118.6928 113° Southeast  Level Estimated
Sun 05:58:00 AM 65.9047 -118.3863 113° Southeast  Level Estimated
Sun 05:59:00 AM 65.8511 -118.0811 113° Southeast  Level Estimated
Sun 06:00:00 AM 65.7970 -117.7772 113° Southeast  Level Estimated
Sun 06:01:00 AM 65.7422 -117.4745 114° Southeast  Level Estimated
Sun 06:02:00 AM 65.6869 -117.1731 114° Southeast  Level Estimated
Sun 06:03:00 AM 65.6309 -116.8731 114° Southeast  Level Estimated
Sun 06:04:00 AM 65.5744 -116.5743 114° Southeast  Level Estimated
Sun 06:05:00 AM 65.5172 -116.2768 115° Southeast  Level Estimated
Sun 06:06:00 AM 65.4595 -115.9806 115° Southeast  Level Estimated
Sun 06:07:00 AM 65.4013 -115.6858 115° Southeast  Level Estimated
Sun 06:08:00 AM 65.3424 -115.3922 116° Southeast  Level Estimated
Sun 06:09:00 AM 65.2830 -115.1000 116° Southeast  Level Estimated
Sun 06:10:00 AM 65.2230 -114.8091 116° Southeast  Level Estimated
Sun 06:11:00 AM 65.1625 -114.5195 116° Southeast  Level Estimated
Sun 06:12:00 AM 65.1014 -114.2312 117° Southeast  Level Estimated
Sun 06:13:00 AM 65.0397 -113.9443 117° Southeast  Level Estimated
Sun 06:14:00 AM 64.9775 -113.6587 117° Southeast  Level Estimated
Sun 06:15:00 AM 64.9148 -113.3744 117° Southeast  Level Estimated
Sun 06:16:00 AM 64.8515 -113.0914 118° Southeast  Level Estimated
Sun 06:17:00 AM 64.7877 -112.8098 118° Southeast  Level Estimated
Sun 06:18:00 AM 64.7234 -112.5295 118° Southeast  Level Estimated
Sun 06:19:00 AM 64.6585 -112.2506 118° Southeast  Level Estimated
Sun 06:20:00 AM 64.5931 -111.9730 119° Southeast  Level Estimated
Sun 06:21:00 AM 64.5272 -111.6967 119° Southeast  Level Estimated
Sun 06:22:00 AM 64.4607 -111.4218 119° Southeast  Level Estimated
Sun 06:23:00 AM 64.3938 -111.1482 119° Southeast  Level Estimated
Sun 06:24:00 AM 64.3264 -110.8759 120° Southeast  Level Estimated
Sun 06:25:00 AM 64.2584 -110.6050 120° Southeast  Level Estimated
Sun 06:26:00 AM 64.1900 -110.3354 120° Southeast  Level Estimated
Sun 06:27:00 AM 64.1210 -110.0671 120° Southeast  Level Estimated
Sun 06:28:00 AM 64.0516 -109.8002 121° Southeast  Level Estimated
Sun 06:29:00 AM 63.9817 -109.5346 121° Southeast  Level Estimated
Sun 06:30:00 AM 63.9113 -109.2703 121° Southeast  Level Estimated
Sun 06:31:00 AM 63.8404 -109.0074 121° Southeast  Level Estimated
Sun 06:32:00 AM 63.7690 -108.7458 122° Southeast  Level Estimated
Sun 06:33:00 AM 63.6972 -108.4855 122° Southeast  Level Estimated
Sun 06:34:00 AM 63.6249 -108.2265 122° Southeast  Level Estimated
Sun 06:35:00 AM 63.5522 -107.9689 122° Southeast  Level Estimated
Sun 06:36:00 AM 63.4789 -107.7126 123° Southeast  Level Estimated
Sun 06:37:00 AM 63.4053 -107.4575 123° Southeast  Level Estimated
Sun 06:38:00 AM 63.3312 -107.2038 123° Southeast  Level Estimated
Sun 06:39:00 AM 63.2566 -106.9514 123° Southeast  Level Estimated
Sun 06:40:00 AM 63.1816 -106.7003 123° Southeast  Level Estimated
Sun 06:41:00 AM 63.1061 -106.4505 124° Southeast  Level Estimated
Sun 06:42:00 AM 63.0302 -106.2020 124° Southeast  Level Estimated
Sun 06:43:00 AM 62.9539 -105.9548 124° Southeast  Level Estimated
Sun 06:44:00 AM 62.8771 -105.7089 124° Southeast  Level Estimated
Sun 06:45:00 AM 62.7999 -105.4643 125° Southeast  Level Estimated
Sun 06:46:00 AM 62.7223 -105.2209 125° Southeast  Level Estimated
Sun 06:47:00 AM 62.6443 -104.9789 125° Southeast  Level Estimated
Sun 06:48:00 AM 62.5658 -104.7381 125° Southeast  Level Estimated
Sun 06:49:00 AM 62.4870 -104.4985 125° Southeast  Level Estimated
Sun 06:50:00 AM 62.4077 -104.2603 126° Southeast  Level Estimated
Sun 06:51:00 AM 62.3281 -104.0233 126° Southeast  Level Estimated
Sun 06:52:00 AM 62.2480 -103.7875 126° Southeast  Level Estimated
Sun 06:53:00 AM 62.1675 -103.5530 126° Southeast  Level Estimated
Sun 06:54:00 AM 62.0867 -103.3198 126° Southeast  Level Estimated
Sun 06:55:00 AM 62.0054 -103.0878 127° Southeast  Level Estimated
Sun 06:56:00 AM 61.9238 -102.8570 127° Southeast  Level Estimated
Sun 06:57:00 AM 61.8418 -102.6275 127° Southeast  Level Estimated
Sun 06:58:00 AM 61.7594 -102.3992 127° Southeast  Level Estimated
Sun 06:59:00 AM 61.6766 -102.1721 127° Southeast  Level Estimated
Sun 07:00:00 AM 61.5934 -101.9463 128° Southeast  Level Estimated
Sun 07:01:00 AM 61.5099 -101.7216 128° Southeast  Level Estimated
Sun 07:02:00 AM 61.4260 -101.4982 128° Southeast  Level Estimated
Sun 07:03:00 AM 61.3418 -101.2759 128° Southeast  Level Estimated
Sun 07:04:00 AM 61.2572 -101.0549 128° Southeast  Level Estimated
Sun 07:05:00 AM 61.1722 -100.8350 129° Southeast  Level Estimated
Sun 07:06:00 AM 61.0869 -100.6164 129° Southeast  Level Estimated
Sun 07:07:00 AM 61.0012 -100.3989 129° Southeast  Level Estimated
Sun 07:08:00 AM 60.9152 -100.1825 129° Southeast  Level Estimated
Sun 07:09:00 AM 60.8288 -99.9674 129° Southeast  Level Estimated
Sun 07:10:00 AM 60.7421 -99.7534 130° Southeast  Level Estimated
Sun 07:11:00 AM 60.6550 -99.5406 130° Southeast  Level Estimated
Sun 07:12:00 AM 60.5676 -99.3289 130° Southeast  Level Estimated
Sun 07:13:00 AM 60.4799 -99.1183 130° Southeast  Level Estimated
Sun 07:14:00 AM 60.3919 -98.9089 130° Southeast  Level Estimated
Sun 07:15:00 AM 60.3035 -98.7006 131° Southeast  Level Estimated
Sun 07:16:00 AM 60.2148 -98.4935 131° Southeast  Level Estimated
Sun 07:17:00 AM 60.1258 -98.2874 131° Southeast  Level Estimated
Sun 07:18:00 AM 60.0364 -98.0825 131° Southeast  Level Estimated
Sun 07:19:00 AM 59.9468 -97.8787 131° Southeast  Level Estimated
Sun 07:20:00 AM 59.8568 -97.6760 131° Southeast  Level Estimated
Sun 07:21:00 AM 59.7665 -97.4744 132° Southeast  Level Estimated
Sun 07:22:00 AM 59.6759 -97.2739 132° Southeast  Level Estimated
Sun 07:23:00 AM 59.5850 -97.0744 132° Southeast  Level Estimated
Sun 07:24:00 AM 59.4939 -96.8761 132° Southeast  Level Estimated
Sun 07:25:00 AM 59.4024 -96.6787 132° Southeast  Level Estimated
Sun 07:26:00 AM 59.3106 -96.4825 132° Southeast  Level Estimated
Sun 07:27:00 AM 59.2185 -96.2874 133° Southeast  Level Estimated
Sun 07:28:00 AM 59.1261 -96.0932 133° Southeast  Level Estimated
Sun 07:29:00 AM 59.0335 -95.9001 133° Southeast  Level Estimated
Sun 07:30:00 AM 58.9405 -95.7081 133° Southeast  Level Estimated
Sun 07:31:00 AM 58.8473 -95.5171 133° Southeast  Level Estimated
Sun 07:32:00 AM 58.7538 -95.3271 133° Southeast  Level Estimated
Sun 07:33:00 AM 58.6600 -95.1382 134° Southeast  Level Estimated
Sun 07:34:00 AM 58.5659 -94.9502 134° Southeast  Level Estimated
Sun 07:35:00 AM 58.4716 -94.7633 134° Southeast  Level Estimated
Sun 07:36:00 AM 58.3770 -94.5774 134° Southeast  Level Estimated
Sun 07:37:00 AM 58.2821 -94.3924 134° Southeast  Level Estimated
Sun 07:38:00 AM 58.1870 -94.2085 134° Southeast  Level Estimated
Sun 07:39:00 AM 58.0916 -94.0256 135° Southeast  Level Estimated
Sun 07:40:00 AM 57.9959 -93.8436 135° Southeast  Level Estimated
Sun 07:41:00 AM 57.9000 -93.6626 135° Southeast  Level Estimated
Sun 07:42:00 AM 57.8038 -93.4825 135° Southeast  Level Estimated
Sun 07:43:00 AM 57.7074 -93.3034 135° Southeast  Level Estimated
Sun 07:44:00 AM 57.6107 -93.1253 135° Southeast  Level Estimated
Sun 07:45:00 AM 57.5138 -92.9481 135° Southeast  Level Estimated
Sun 07:46:00 AM 57.4166 -92.7718 136° Southeast  Level Estimated
Sun 07:47:00 AM 57.3192 -92.5965 136° Southeast  Level Estimated
Sun 07:48:00 AM 57.2215 -92.4221 136° Southeast  Level Estimated
Sun 07:49:00 AM 57.1236 -92.2487 136° Southeast  Level Estimated
Sun 07:50:00 AM 57.0255 -92.0761 136° Southeast  Level Estimated
Sun 07:51:00 AM 56.9271 -91.9045 136° Southeast  Level Estimated
Sun 07:52:00 AM 56.8285 -91.7337 137° Southeast  Level Estimated
Sun 07:53:00 AM 56.7297 -91.5639 137° Southeast  Level Estimated
Sun 07:54:00 AM 56.6306 -91.3949 137° Southeast  Level Estimated
Sun 07:55:00 AM 56.5313 -91.2269 137° Southeast  Level Estimated
Sun 07:56:00 AM 56.4318 -91.0597 137° Southeast  Level Estimated
Sun 07:57:00 AM 56.3320 -90.8934 137° Southeast  Level Estimated
Sun 07:58:00 AM 56.2321 -90.7280 137° Southeast  Level Estimated
Sun 07:59:00 AM 56.1319 -90.5634 137° Southeast  Level Estimated
Sun 08:00:00 AM 56.0314 -90.3997 138° Southeast  Level Estimated
Sun 08:01:00 AM 55.9308 -90.2368 138° Southeast  Level Estimated
Sun 08:02:00 AM 55.8300 -90.0748 138° Southeast  Level Estimated
Sun 08:03:00 AM 55.7289 -89.9136 138° Southeast  Level Estimated
Sun 08:04:00 AM 55.6277 -89.7532 138° Southeast  Level Estimated
Sun 08:05:00 AM 55.5262 -89.5937 138° Southeast  Level Estimated
Sun 08:06:00 AM 55.4245 -89.4350 138° Southeast  Level Estimated
Sun 08:07:00 AM 55.3227 -89.2771 139° Southeast  Level Estimated
Sun 08:08:00 AM 55.2206 -89.1200 139° Southeast  Level Estimated
Sun 08:09:00 AM 55.1183 -88.9637 139° Southeast  Level Estimated
Sun 08:10:00 AM 55.0158 -88.8083 139° Southeast  Level Estimated
Sun 08:11:00 AM 54.9131 -88.6536 139° Southeast  Level Estimated
Sun 08:12:00 AM 54.8103 -88.4997 139° Southeast  Level Estimated
Sun 08:13:00 AM 54.7072 -88.3466 139° Southeast  Level Estimated
Sun 08:14:00 AM 54.6039 -88.1943 139° Southeast  Level Estimated
Sun 08:15:00 AM 54.5005 -88.0427 140° Southeast  Level Estimated
Sun 08:16:00 AM 54.3968 -87.8919 140° Southeast  Level Estimated
Sun 08:17:00 AM 54.2930 -87.7419 140° Southeast  Level Estimated
Sun 08:18:00 AM 54.1890 -87.5926 140° Southeast  Level Estimated
Sun 08:19:00 AM 54.0848 -87.4441 140° Southeast  Level Estimated
Sun 08:19:38 AM 56.0333 -83.7333 141° Southeast 490 564 35,000  Level Edmonton Center
Sun 08:20:00 AM 53.9804 -87.2963 140° Southeast  Level Estimated
Sun 08:20:19 AM 56.0167 -83.8000 246° West 480 552 35,000  Level Montreal Center
Sun 08:20:38 AM 55.9500 -83.6000 121° Southeast 470 541 35,000  Level Edmonton Center
Sun 08:21:00 AM 53.8759 -87.1492 140° Southeast  Level Estimated
Sun 08:21:19 AM 55.9000 -83.6500 209° Southwest 470 541 35,000  Level Montreal Center
Sun 08:22:00 AM 53.7711 -87.0029 140° Southeast  Level Estimated
Sun 08:22:19 AM 55.7833 -83.5167 147° Southeast 470 541 35,000  Level Montreal Center
Sun 08:22:38 AM 55.7167 -83.3333 123° Southeast 480 552 35,000  Level Edmonton Center
Sun 08:23:00 AM 53.6662 -86.8573 141° Southeast  Level Estimated
Sun 08:23:19 AM 55.7000 -83.3833 239° Southwest 470 541 35,000  Level Montreal Center
Sun 08:24:00 AM 53.5611 -86.7125 141° Southeast  Level Estimated
Sun 08:24:19 AM 55.5667 -83.2333 148° Southeast 480 552 35,000  Level Montreal Center
Sun 08:24:38 AM 55.5167 -83.0333 114° Southeast 480 552 35,000  Level Edmonton Center
Sun 08:25:00 AM 53.4559 -86.5683 141° Southeast  Level Estimated
Sun 08:25:38 AM 55.4167 -82.9167 146° Southeast 480 552 35,000  Level Edmonton Center
Sun 08:26:19 AM 55.3667 -82.9667 210° Southwest 480 552 35,000  Level Montreal Center
Sun 08:26:38 AM 55.3000 -82.7667 120° Southeast 480 552 35,000  Level Edmonton Center
Sun 08:27:38 AM 55.2000 -82.6500 146° Southeast 480 552 35,000  Level Edmonton Center
Sun 08:28:38 AM 55.0833 -82.5000 144° Southeast 480 552 35,000  Level Edmonton Center
Sun 08:29:19 AM 55.0333 -82.5500 210° Southwest 480 552 35,000  Level Montreal Center
Sun 08:30:19 AM 54.9167 -82.3833 141° Southeast 480 552 35,000  Level Montreal Center
Sun 08:30:38 AM 54.8667 -82.2333 120° Southeast 490 564 35,000  Level Edmonton Center
Sun 08:31:38 AM 54.7500 -82.0833 143° Southeast 480 552 35,000  Level Edmonton Center
Sun 08:32:38 AM 54.6333 -81.9333 143° Southeast 480 552 35,000  Level Edmonton Center
Sun 08:33:19 AM 54.6000 -81.9833 221° Southwest 480 552 35,000  Level Montreal Center
Sun 08:33:38 AM 54.5333 -81.8167 125° Southeast 480 552 35,000  Level Edmonton Center
Sun 08:34:38 AM 54.4167 -81.6667 143° Southeast 480 552 35,000  Level Edmonton Center
Sun 08:35:38 AM 54.3167 -81.5500 146° Southeast 480 552 35,000  Level Edmonton Center
Sun 08:36:38 AM 54.2000 -81.4167 146° Southeast 480 552 35,000  Level Edmonton Center
Sun 08:37:38 AM 54.1000 -81.2833 142° Southeast 480 552 35,000  Level Edmonton Center
Sun 08:38:38 AM 53.9833 -81.1833 153° Southeast 480 552 35,000  Level Edmonton Center
Sun 08:39:38 AM 53.8667 -81.0333 143° Southeast 480 552 35,000  Level Edmonton Center
Sun 08:40:19 AM 53.8167 -81.0667 201° Southwest 480 552 35,000  Level Montreal Center
Sun 08:41:19 AM 53.7333 -80.9500 140° Southeast 470 541 35,000  Level Montreal Center
Sun 08:41:38 AM 53.6500 -80.7833 130° Southeast 480 552 35,000  Level Edmonton Center
Sun 08:42:19 AM 53.6167 -80.8167 211° Southwest 470 541 35,000  Level Montreal Center
Sun 08:43:19 AM 53.5000 -80.7000 149° Southeast 470 541 35,000  Level Montreal Center
Sun 08:43:38 AM 53.4333 -80.5333 124° Southeast 480 552 35,000  Level Edmonton Center
Sun 08:44:38 AM 53.3167 -80.4000 146° Southeast 470 541 35,000  Level Edmonton Center
Sun 08:45:38 AM 53.2000 -80.2833 149° Southeast 470 541 35,000  Level Edmonton Center
Sun 08:46:38 AM 53.0833 -80.1833 153° Southeast 470 541 35,000  Level Edmonton Center
Sun 08:47:19 AM 53.0500 -80.2167 211° Southwest 470 541 35,000  Level Montreal Center
Sun 08:48:19 AM 52.9333 -80.1333 157° South 470 541 35,000  Level Montreal Center
Sun 08:49:19 AM 52.8167 -80.0333 153° Southeast 470 541 35,000  Level Montreal Center
Sun 08:50:19 AM 52.7000 -79.9167 149° Southeast 470 541 35,000  Level Montreal Center
Sun 08:51:19 AM 52.5833 -79.8167 152° Southeast 470 541 35,000  Level Montreal Center
Sun 08:52:19 AM 52.4667 -79.7167 152° Southeast 480 552 35,000  Level Montreal Center
Sun 08:53:19 AM 52.3667 -79.6000 145° Southeast 470 541 35,000  Level Montreal Center
Sun 08:54:19 AM 52.2500 -79.5167 156° South 480 552 35,000  Level Montreal Center
Sun 08:55:19 AM 52.1333 -79.4167 152° Southeast 470 541 35,000  Level Montreal Center
Sun 08:56:19 AM 52.0000 -79.3000 152° Southeast 480 552 35,000  Level Montreal Center
Sun 08:57:19 AM 51.8833 -79.2167 156° South 480 552 35,000  Level Montreal Center
Sun 08:58:19 AM 51.7500 -79.1000 152° Southeast 480 552 35,000  Level Montreal Center
Sun 08:59:19 AM 51.6333 -79.0000 152° Southeast 480 552 35,000  Level Montreal Center
Sun 09:00:19 AM 51.5167 -78.8833 148° Southeast 480 552 35,000  Level Montreal Center
Sun 09:01:19 AM 51.4000 -78.8000 156° South 480 552 35,000  Level Montreal Center
Sun 09:02:19 AM 51.2833 -78.7167 156° South 480 552 35,000  Level Montreal Center
Sun 09:03:19 AM 51.1500 -78.6000 151° Southeast 480 552 35,000  Level Montreal Center
Sun 09:04:19 AM 51.0333 -78.5000 152° Southeast 480 552 35,000  Level Montreal Center
Sun 09:05:19 AM 50.9167 -78.4167 156° South 480 552 35,000  Level Montreal Center
Sun 09:06:19 AM 50.8167 -78.3167 148° Southeast 480 552 35,000  Level Montreal Center
Sun 09:07:19 AM 50.6833 -78.2167 155° Southeast 480 552 35,000  Level Montreal Center
Sun 09:08:19 AM 50.5667 -78.1167 151° Southeast 490 564 35,000  Level Montreal Center
Sun 09:09:19 AM 50.4500 -78.0333 156° South 490 564 35,000  Level Montreal Center
Sun 09:10:19 AM 50.3333 -77.9500 155° Southeast 490 564 35,000  Level Montreal Center
Sun 09:11:19 AM 50.2000 -77.8333 151° Southeast 490 564 35,000  Level Montreal Center
Sun 09:12:19 AM 50.0833 -77.7500 155° Southeast 480 552 35,000  Level Montreal Center
Sun 09:13:19 AM 49.9667 -77.6333 147° Southeast 490 564 35,000  Level Montreal Center
Sun 09:14:19 AM 49.8333 -77.5500 158° South 490 564 35,000  Level Montreal Center
Sun 09:15:19 AM 49.7167 -77.4500 151° Southeast 490 564 35,000  Level Montreal Center
Sun 09:16:19 AM 49.5833 -77.3667 158° South 500 575 35,000  Level Montreal Center
Sun 09:17:19 AM 49.4667 -77.2667 151° Southeast 470 541 35,000  Level Montreal Center
Sun 09:18:19 AM 49.3333 -77.1500 150° Southeast 540 621 35,000  Level Montreal Center
Sun 09:19:19 AM 49.2167 -77.0667 155° Southeast 470 541 35,000  Level Montreal Center
Sun 09:20:19 AM 49.0833 -76.9667 154° Southeast 500 575 35,000  Level Montreal Center
Sun 09:21:19 AM 48.9667 -76.8833 155° Southeast 490 564 35,000  Level Montreal Center
Sun 09:22:19 AM 48.8333 -76.7833 154° Southeast 490 564 35,000  Level Montreal Center
Sun 09:23:19 AM 48.7167 -76.7000 155° Southeast 490 564 35,000  Level Montreal Center
Sun 09:24:19 AM 48.6000 -76.6333 159° South 500 575 35,000  Level Montreal Center
Sun 09:25:19 AM 48.4667 -76.5167 150° Southeast 500 575 35,000  Level Montreal Center
Sun 09:26:19 AM 48.3500 -76.4500 159° South 500 575 35,000  Level Montreal Center
Sun 09:27:19 AM 48.2000 -76.3667 160° South 500 575 35,000  Level Montreal Center
Sun 09:28:19 AM 48.0833 -76.3000 159° South 500 575 35,000  Level Montreal Center
Sun 09:29:19 AM 47.9167 -76.2167 161° South 500 575 35,000  Level Montreal Center
Sun 09:35:23 AM 47.1750 -75.8370 161° South 513 590 35,000  Level FlightAware ADS-B
Sun 09:36:48 AM 46.9480 -75.7240 161° South 511 588 35,000  Level FlightAware ADS-B
Sun 09:37:23 AM 46.8590 -75.6800 161° South 510 587 35,000  Level FlightAware ADS-B
Sun 09:38:08 AM 46.7580 -75.6300 161° South 511 588 35,000  Level FlightAware ADS-B
Sun 09:38:48 AM 46.6660 -75.5850 161° South 511 588 35,000  Level FlightAware ADS-B
Sun 09:39:28 AM 46.5790 -75.5430 162° South 512 589 35,000  Level FlightAware ADS-B
Sun 09:40:13 AM 46.4780 -75.4930 161° South 513 590 35,000  Level FlightAware ADS-B
Sun 09:40:53 AM 46.3890 -75.4500 162° South 514 592 35,000  Level FlightAware ADS-B
Sun 09:41:33 AM 46.3070 -75.4110 162° South 515 593 35,000  Level FlightAware ADS-B
Sun 09:42:13 AM 46.2080 -75.3630 161° South 516 594 35,000  Level FlightAware ADS-B
Sun 09:42:53 AM 46.1160 -75.3190 162° South 517 595 35,000  Level FlightAware ADS-B
Sun 09:43:33 AM 46.0270 -75.2770 162° South 518 596 35,000  Level FlightAware ADS-B
Sun 09:44:23 AM 45.9120 -75.2220 162° South 519 597 35,000  Level FlightAware ADS-B
Sun 09:44:53 AM 45.8430 -75.1890 162° South 519 597 35,000  Level FlightAware ADS-B
Sun 09:45:28 AM 45.7660 -75.1530 162° South 519 597 35,000  Level FlightAware ADS-B
Sun 09:46:03 AM 45.6850 -75.1140 161° South 518 596 35,000  Level FlightAware ADS-B
Sun 09:46:43 AM 45.5930 -75.0710 162° South 518 596 35,000  Level FlightAware ADS-B
Sun 09:47:23 AM 45.5020 -75.0290 162° South 520 598 35,000  Level FlightAware ADS-B
Sun 09:48:03 AM 45.4100 -74.9860 162° South 520 598 35,000  Level FlightAware ADS-B
Sun 09:48:43 AM 45.3190 -74.9430 162° South 520 598 35,000  Level FlightAware ADS-B
Sun 09:49:28 AM 45.2130 -74.8950 162° South 521 600 35,000  Level FlightAware ADS-B
Sun 09:50:08 AM 45.1230 -74.8530 162° South 521 600 35,000  Level FlightAware ADS-B
Sun 09:50:48 AM 45.0290 -74.8100 162° South 521 600 35,000  Level FlightAware ADS-B
Sun 09:51:23 AM 44.9510 -74.7740 162° South 521 600 35,000  Level FlightAware ADS-B
Sun 09:52:03 AM 44.8610 -74.7330 162° South 520 598 35,000  Level FlightAware ADS-B
Sun 09:52:43 AM 44.7700 -74.6910 162° South 521 600 35,000  Level FlightAware ADS-B
Sun 09:53:28 AM 44.6640 -74.6430 162° South 523 602 35,000  Level FlightAware ADS-B
Sun 09:54:08 AM 44.5730 -74.6020 162° South 524 603 35,000  Level FlightAware ADS-B
Sun 09:54:53 AM 44.4710 -74.5560 162° South 523 602 35,000  Level FlightAware ADS-B
Sun 09:55:33 AM 44.3780 -74.5140 162° South 521 600 35,000  Level FlightAware ADS-B
Sun 09:56:13 AM 44.2880 -74.4740 162° South 519 597 35,000  Level FlightAware ADS-B
Sun 09:56:58 AM 44.1870 -74.4290 162° South 517 595 35,000  Level FlightAware ADS-B
Sun 09:57:33 AM 44.1050 -74.3920 162° South 518 596 35,000  Level FlightAware ADS-B
Sun 09:58:13 AM 44.0150 -74.3530 163° South 518 596 35,000  Level FlightAware ADS-B
Sun 09:59:03 AM 43.9010 -74.3020 162° South 519 597 35,000  Level FlightAware ADS-B
Sun 09:59:48 AM 43.8010 -74.2580 162° South 519 597 35,000  Level FlightAware ADS-B
Sun 10:00:28 AM 43.7110 -74.2180 162° South 513 590 35,000  Level FlightAware ADS-B
Sun 10:01:18 AM 43.5980 -74.1690 163° South 513 590 35,000  Level FlightAware ADS-B
Sun 10:01:58 AM 43.5070 -74.1300 163° South 515 593 35,000  Level FlightAware ADS-B
Sun 10:02:38 AM 43.4160 -74.0900 162° South 517 595 35,000  Level FlightAware ADS-B
Sun 10:03:18 AM 43.3150 -74.0460 162° South 519 597 35,000  Level FlightAware ADS-B
Sun 10:03:53 AM 43.2460 -74.0160 162° South 520 598 35,000  Level FlightAware ADS-B
Sun 10:04:43 AM 43.1230 -73.9640 163° South 516 594 35,000  Level FlightAware ADS-B
Sun 10:05:23 AM 43.0350 -73.9260 162° South 514 592 35,000  Level FlightAware ADS-B
Sun 10:06:08 AM 42.9310 -73.8810 162° South 512 589 35,000  Level FlightAware ADS-B
Sun 10:06:43 AM 42.8590 -73.8500 162° South 506 582 35,000  Level FlightAware ADS-B
Sun 10:07:23 AM 42.7630 -73.8130 164° South 492 566 35,000  Level FlightAware ADS-B
Sun 10:08:03 AM 42.6750 -73.8040 176° South 475 547 35,000 -825 Level FlightAware ADS-B
Sun 10:08:43 AM 42.5870 -73.8050 180° South 475 547 33,900 -1,200 Descending FlightAware ADS-B
Sun 10:09:28 AM 42.4950 -73.8060 180° South 473 544 33,300 -1,875 Descending FlightAware ADS-B
Sun 10:10:03 AM 42.4170 -73.8090 182° South 476 548 31,400 -1,341 Descending FlightAware ADS-B
Sun 10:10:53 AM 42.3230 -73.8120 181° South 476 548 31,400  Level FlightAware ADS-B
Sun 10:11:23 AM 42.2670 -73.8130 181° South 476 548 31,400  Level FlightAware ADS-B
Sun 10:12:13 AM 42.1740 -73.8150 181° South 476 548 31,400 -2,400 Level FlightAware ADS-B
Sun 10:12:48 AM 42.0580 -73.8150 180° South 457 526 28,000 -3,138 Descending FlightAware ADS-B
Sun 10:13:18 AM 41.9903 -73.8167 181° South 456 525 28,000 -190 Level FlightAware ADS-B
Sun 10:13:51 AM 41.9208 -73.8218 183° South 451 519 27,800 -1,341 Descending FlightAware ADS-B
Sun 10:14:43 AM 41.8205 -73.8538 193° South 416 479 26,100 -2,096 Descending FlightAware ADS-B
Sun 10:15:14 AM 41.7662 -73.8811 201° Southwest 412 474 24,900 -2,250 Descending FlightAware ADS-B
Sun 10:15:15 AM 41.7644 -73.8820 200° South 416 479 24,900 -2,000 Level FlightAware ADS-B
Sun 10:15:44 AM 41.7128 -73.9078 200° South 406 467 23,900 -2,000 Descending FlightAware ADS-B
Sun 10:16:18 AM 41.6550 -73.9360 200° South 398 458 22,800 -2,000 Descending FlightAware ADS-B
Sun 10:16:38 AM 41.6193 -73.9528 199° South 410 472 22,100 -1,882 Descending FlightAware ADS-B
Sun 10:17:09 AM 41.5653 -73.9784 200° South 386 444 21,200 -1,810 Descending FlightAware ADS-B
Sun 10:17:41 AM 41.5121 -74.0035 199° South 383 441 20,200 -947 Descending FlightAware ADS-B
Sun 10:18:25 AM 41.4392 -74.0381 200° South 384 442 20,000 -167 Descending FlightAware ADS-B
Sun 10:18:53 AM 41.3932 -74.0616 201° Southwest 376 433 20,000  Level FlightAware ADS-B
Sun 10:19:09 AM 41.3682 -74.0789 207° Southwest 368 423 20,000  Level FlightAware ADS-B
Sun 10:19:42 AM 41.3210 -74.1180 212° Southwest 364 419 20,000  Level FlightAware ADS-B
Sun 10:20:14 AM 41.2757 -74.1572 213° Southwest 362 417 20,000  Level FlightAware ADS-B
Sun 10:20:28 AM 41.2565 -74.1736 213° Southwest 348 400 20,000  Level FlightAware ADS-B
Sun 10:20:46 AM 41.2336 -74.1932 213° Southwest 336 387 20,000  Level FlightAware ADS-B
Sun 10:20:59 AM 41.2161 -74.2082 213° Southwest 335 386 20,000 -400 Level FlightAware ADS-B
Sun 10:21:16 AM 41.1943 -74.2269 213° Southwest 333 383 19,800 -933 Descending FlightAware ADS-B
Sun 10:21:44 AM 41.1584 -74.2575 213° Southwest 335 386 19,300 -947 Descending FlightAware ADS-B
Sun 10:21:54 AM 41.1437 -74.2676 207° Southwest 340 391 19,200 -947 Descending FlightAware ADS-B
Sun 10:22:03 AM 41.1313 -74.2741 202° Southwest 344 396 19,000 -750 Descending FlightAware ADS-B
Sun 10:22:10 AM 41.1196 -74.2784 195° South 347 399 19,000  Level FlightAware ADS-B
Sun 10:22:19 AM 41.1056 -74.2813 189° South 349 402 19,000  Level FlightAware ADS-B
Sun 10:22:22 AM 41.1014 -74.2817 184° South 349 402 19,000  Level FlightAware ADS-B
Sun 10:22:31 AM 41.0864 -74.2815 179° South 353 406 19,000  Level FlightAware ADS-B
Sun 10:22:34 AM 41.0806 -74.2806 173° South 354 407 19,000  Level FlightAware ADS-B
Sun 10:22:38 AM 41.0743 -74.2793 171° South 359 413 19,000  Level FlightAware ADS-B
Sun 10:22:43 AM 41.0659 -74.2767 167° South 364 419 19,000  Level FlightAware ADS-B
Sun 10:22:53 AM 41.0507 -74.2695 160° South 374 430 19,000  Level FlightAware ADS-B
Sun 10:23:08 AM 41.0278 -74.2512 149° Southeast 387 445 19,000  Level FlightAware ADS-B
Sun 10:23:38 AM 40.9854 -74.2076 142° Southeast 387 445 19,000  Level FlightAware ADS-B
Sun 10:24:08 AM 40.9427 -74.1632 142° Southeast 387 445 19,000  Level FlightAware ADS-B
Sun 10:24:21 AM 40.9254 -74.1431 139° Southeast 392 451 19,000  Level FlightAware ADS-B
Sun 10:24:25 AM 40.9208 -74.1370 135° Southeast 390 449 19,000  Level FlightAware ADS-B
Sun 10:24:36 AM 40.9055 -74.1182 137° Southeast 388 447 19,000  Level FlightAware ADS-B
Sun 10:24:39 AM 40.9012 -74.1141 144° Southeast 384 442 19,000  Level FlightAware ADS-B
Sun 10:24:41 AM 40.8980 -74.1113 147° Southeast 381 438 19,000  Level FlightAware ADS-B
Sun 10:24:51 AM 40.8840 -74.1012 151° Southeast 373 429 19,000  Level FlightAware ADS-B
Sun 10:25:10 AM 40.8536 -74.0829 156° South 372 428 19,000  Level FlightAware ADS-B
Sun 10:25:21 AM 40.8366 -74.0729 156° South 374 430 19,000 -600 Level FlightAware ADS-B
Sun 10:25:40 AM 40.8061 -74.0546 156° South 373 429 18,700 -1,200 Descending FlightAware ADS-B
Sun 10:25:51 AM 40.7892 -74.0445 156° South 371 427 18,400 -1,500 Descending FlightAware ADS-B
Sun 10:26:16 AM 40.7509 -74.0217 156° South 369 425 17,800 -1,355 Descending FlightAware ADS-B
Sun 10:26:22 AM 40.7409 -74.0158 156° South 368 423 17,700 -1,500 Descending FlightAware ADS-B
Sun 10:26:48 AM 40.7007 -73.9921 156° South 368 423 17,000 -1,600 Descending FlightAware ADS-B
Sun 10:26:52 AM 40.6946 -73.9885 156° South 365 420 16,900 -1,371 Descending FlightAware ADS-B
Sun 10:27:23 AM 40.6474 -73.9614 156° South 360 414 16,200 -1,429 Descending FlightAware ADS-B
Sun 10:27:55 AM 40.5985 -73.9332 156° South 352 405 15,400 -2,226 Descending FlightAware ADS-B
Sun 10:28:25 AM 40.5536 -73.9080 157° South 352 405 13,900 -2,852 Descending FlightAware ADS-B
Sun 10:28:56 AM 40.5082 -73.8832 157° South 346 398 12,500 -2,512 Descending FlightAware ADS-B
Sun 10:29:08 AM 40.4905 -73.8727 156° South 339 390 12,100 -2,100 Descending FlightAware ADS-B
Sun 10:29:16 AM 40.4804 -73.8643 148° Southeast 342 394 11,800 -2,000 Descending FlightAware ADS-B
Sun 10:29:23 AM 40.4722 -73.8545 138° Southeast 342 394 11,600 -2,550 Descending FlightAware ADS-B
Sun 10:29:56 AM 40.4377 -73.8026 131° Southeast 338 389 10,100 -2,500 Descending FlightAware ADS-B
Sun 10:30:11 AM 40.4221 -73.7789 131° Southeast 340 391 9,600 -1,714 Descending FlightAware ADS-B
Sun 10:30:24 AM 40.4095 -73.7578 128° Southeast 342 394 9,300 -1,059 Descending FlightAware ADS-B
Sun 10:30:28 AM 40.4066 -73.7510 119° Southeast 341 392 9,300 -500 Level FlightAware ADS-B
Sun 10:30:36 AM 40.4018 -73.7364 113° Southeast 337 388 9,200 -706 Descending FlightAware ADS-B
Sun 10:30:45 AM 40.3974 -73.7186 108° East 328 377 9,100 -1,200 Descending FlightAware ADS-B
Sun 10:31:01 AM 40.3910 -73.6894 106° East 318 366 8,700 -1,500 Descending FlightAware ADS-B
Sun 10:31:21 AM 40.3832 -73.6528 106° East 313 360 8,200 -1,333 Descending FlightAware ADS-B
Sun 10:31:37 AM 40.3771 -73.6236 105° East 306 352 7,900 -1,200 Descending FlightAware ADS-B
Sun 10:31:46 AM 40.3759 -73.6070 95° East 300 345 7,700 -1,778 Descending FlightAware ADS-B
Sun 10:32:04 AM 40.3822 -73.5772 74° East 282 325 7,100 -2,182 Descending FlightAware ADS-B
Sun 10:32:08 AM 40.3851 -73.5716 56° Northeast 279 321 6,900 -2,800 Descending FlightAware ADS-B
Sun 10:32:19 AM 40.3950 -73.5590 44° Northeast 269 310 6,400 -2,200 Descending FlightAware ADS-B
Sun 10:32:38 AM 40.4143 -73.5422 34° Northeast 271 312 5,800 -1,463 Descending FlightAware ADS-B
Sun 10:33:00 AM 40.4382 -73.5228 32° Northeast 269 310 5,400 -1,292 Descending FlightAware ADS-B
Sun 10:33:43 AM 40.4840 -73.5130 North 242 278 4,400 -1,562 Descending FlightAware ADS-B
Sun 10:34:13 AM 40.5140 -73.5250 343° North 230 265 3,500 -1,600 Descending FlightAware ADS-B
Sun 10:34:28 AM 40.5280 -73.5350 332° Northwest 225 259 3,200 -750 Descending FlightAware ADS-B
Sun 10:34:53 AM 40.5480 -73.5530 326° Northwest 209 241 3,000 -600 Descending FlightAware ADS-B
Sun 10:35:08 AM 40.5570 -73.5700 305° West 198 228 2,800 -750 Descending FlightAware ADS-B
Sun 10:35:33 AM 40.5680 -73.5940 301° West 185 213 2,500 -600 Descending FlightAware ADS-B
Sun 10:35:58 AM 40.5790 -73.6170 302° West 167 192 2,300 -720 Descending FlightAware ADS-B
Sun 10:36:23 AM 40.5890 -73.6380 302° West 149 171 1,900 -600 Descending FlightAware ADS-B
Sun 10:36:38 AM 40.5940 -73.6490 301° West 155 178 1,900 -533 Level FlightAware ADS-B
Sun 10:37:08 AM 40.6050 -73.6730 301° West 144 166 1,500 -764 Descending FlightAware ADS-B
Sun 10:37:33 AM 40.6130 -73.6920 299° West 134 154 1,200 -764 Descending FlightAware ADS-B
Sun 10:38:03 AM 40.6230 -73.7130 302° West 131 151 800 -764 Descending FlightAware ADS-B
Sun 10:38:28 AM 40.6300 -73.7290 300° West 134 154 500 -764 Descending FlightAware ADS-B
Sun 10:38:58 AM 40.6400 -73.7510 301° West 131 151 100 -800 Descending FlightAware ADS-B

Login

Don't have an account? Register now (free) for customized features, flight alerts, and more!